PWSweather.com
Personal Weather Stations
Station Observations
GEELONGWX1
Bell Post Hill, GeelongAU

Bell Post HillGeelongAU

Lat: -38.101, Lon: 144.326

Elevation: 204

Station Type: Davis Vantage Pro2

http://www.geelongweather.com

High Low Average
Temperature 84.2°F29.0°F 62.1°F16.7°F 73.7°F23.2°F
Dew Point 72.4°F22.4°F 54.8°F12.7°F 63.9°F17.7°F
Winds 11.5 mph -18.5 mph - Calm Calm 3.9 mph 6.3 mph
Wind Gusts 19.6 mph31.5 mph -- 6.3 mph10.1 mph
Humidity 84% 55% 72%
Pressure 30.09 in1019.00 in 29.76 in1007.80 in -
Precipitation 0.07 in1.80 in - -
Hour Temp Dew Point Humidity Winds Wind Gusts Pressure Precip Precip Rate Daily Precip Total
12:00 AM 76.2°F24.6°C 62.7°F17.1°C 63% 1.2 mph WNW1.9 kmh WNW 2.3 mph3.7 kmh 29.84 in1010.5 mb - 0.00 in0.0 mm 0.00 in0.0 mm
12:10 AM 76.1°F24.5°C 62.6°F17.0°C 63% 2.3 mph SSE3.7 kmh SSE 2.3 mph3.7 kmh 29.84 in1010.5 mb - 0.00 in0.0 mm 0.00 in0.0 mm
12:20 AM 75.9°F24.4°C 62.8°F17.1°C 64% 2.3 mph SSW3.7 kmh SSW 2.3 mph3.7 kmh 29.85 in1010.8 mb - 0.00 in0.0 mm 0.00 in0.0 mm
12:30 AM 75.7°F24.3°C 62.7°F17.1°C 64% 1.2 mph S1.9 kmh S 2.3 mph3.7 kmh 29.85 in1010.8 mb - 0.00 in0.0 mm 0.00 in0.0 mm
12:40 AM 75.5°F24.2°C 62.9°F17.2°C 65% 3.5 mph NW5.6 kmh NW 3.5 mph5.6 kmh 29.87 in1011.5 mb - 0.00 in0.0 mm 0.00 in0.0 mm
12:50 AM 75.6°F24.2°C 64.3°F17.9°C 68% 2.3 mph W3.7 kmh W 3.5 mph5.6 kmh 29.89 in1012.2 mb - 0.00 in0.0 mm 0.00 in0.0 mm
01:00 AM 75.6°F24.2°C 65.1°F18.4°C 70% 1.2 mph W1.9 kmh W 3.5 mph5.6 kmh 29.87 in1011.5 mb - 0.00 in0.0 mm 0.00 in0.0 mm
01:10 AM 75.4°F24.1°C 64.9°F18.3°C 70% 1.2 mph W1.9 kmh W 1.2 mph1.9 kmh 29.86 in1011.2 mb - 0.00 in0.0 mm 0.00 in0.0 mm
01:20 AM 75.1°F23.9°C 65.1°F18.4°C 71% 1.2 mph W1.9 kmh W 2.3 mph3.7 kmh 29.84 in1010.5 mb - 0.00 in0.0 mm 0.00 in0.0 mm
01:30 AM 74.8°F23.8°C 65.2°F18.4°C 72% 1.2 mph NW1.9 kmh NW 2.3 mph3.7 kmh 29.83 in1010.2 mb - 0.00 in0.0 mm 0.00 in0.0 mm
01:40 AM 74.4°F23.6°C 65.2°F18.4°C 73% Calm Calm 1.2 mph1.9 kmh 29.81 in1009.5 mb - 0.00 in0.0 mm 0.00 in0.0 mm
01:50 AM 74.0°F23.3°C 64.8°F18.2°C 73% Calm Calm 1.2 mph1.9 kmh 29.80 in1009.1 mb - 0.00 in0.0 mm 0.00 in0.0 mm
02:00 AM 73.5°F23.1°C 64.3°F17.9°C 73% Calm Calm 1.2 mph1.9 kmh 29.80 in1009.1 mb - 0.00 in0.0 mm 0.00 in0.0 mm
02:10 AM 73.1°F22.8°C 63.9°F17.7°C 73% 1.2 mph N1.9 kmh N 1.2 mph1.9 kmh 29.80 in1009.1 mb - 0.00 in0.0 mm 0.00 in0.0 mm
02:20 AM 72.8°F22.7°C 64.4°F18.0°C 75% 1.2 mph N1.9 kmh N 1.2 mph1.9 kmh 29.79 in1008.8 mb - 0.00 in0.0 mm 0.00 in0.0 mm
02:30 AM 72.4°F22.4°C 64.8°F18.2°C 77% 2.3 mph N3.7 kmh N 3.5 mph5.6 kmh 29.78 in1008.5 mb - 0.00 in0.0 mm 0.00 in0.0 mm
02:40 AM 72.0°F22.2°C 65.1°F18.4°C 79% 2.3 mph NNW3.7 kmh NNW 3.5 mph5.6 kmh 29.78 in1008.5 mb - 0.00 in0.0 mm 0.00 in0.0 mm
02:50 AM 71.6°F22.0°C 65.1°F18.4°C 80% 2.3 mph NNW3.7 kmh NNW 4.6 mph7.4 kmh 29.77 in1008.1 mb - 0.00 in0.0 mm 0.00 in0.0 mm
03:00 AM 71.2°F21.8°C 65.1°F18.4°C 81% 2.3 mph NNW3.7 kmh NNW 3.5 mph5.6 kmh 29.76 in1007.8 mb - 0.00 in0.0 mm 0.00 in0.0 mm
03:10 AM 70.9°F21.6°C 65.1°F18.4°C 82% 4.6 mph NNW7.4 kmh NNW 5.8 mph9.3 kmh 29.76 in1007.8 mb - 0.00 in0.0 mm 0.00 in0.0 mm
03:20 AM 70.7°F21.5°C 64.9°F18.3°C 82% 3.5 mph NNW5.6 kmh NNW 4.6 mph7.4 kmh 29.76 in1007.8 mb - 0.00 in0.0 mm 0.00 in0.0 mm
03:30 AM 70.5°F21.4°C 64.8°F18.2°C 82% 1.2 mph NNW1.9 kmh NNW 2.3 mph3.7 kmh 29.76 in1007.8 mb - 0.00 in0.0 mm 0.00 in0.0 mm
03:40 AM 70.5°F21.4°C 65.1°F18.4°C 83% 2.3 mph NW3.7 kmh NW 3.5 mph5.6 kmh 29.77 in1008.1 mb - 0.00 in0.0 mm 0.00 in0.0 mm
03:50 AM 70.4°F21.3°C 65.3°F18.5°C 84% 1.2 mph NW1.9 kmh NW 3.5 mph5.6 kmh 29.77 in1008.1 mb - 0.00 in0.0 mm 0.00 in0.0 mm
04:00 AM 70.4°F21.3°C 65.3°F18.5°C 84% Calm Calm 1.2 mph1.9 kmh 29.78 in1008.5 mb - 0.00 in0.0 mm 0.00 in0.0 mm
04:10 AM 70.3°F21.3°C 65.3°F18.5°C 84% Calm Calm 1.2 mph1.9 kmh 29.78 in1008.5 mb - 0.00 in0.0 mm 0.00 in0.0 mm
04:20 AM 70.3°F21.3°C 65.2°F18.4°C 84% 1.2 mph NW1.9 kmh NW 1.2 mph1.9 kmh 29.78 in1008.5 mb - 0.00 in0.0 mm 0.00 in0.0 mm
04:30 AM 70.2°F21.2°C 65.1°F18.4°C 84% 1.2 mph NNW1.9 kmh NNW 2.3 mph3.7 kmh 29.77 in1008.1 mb - 0.00 in0.0 mm 0.00 in0.0 mm
04:40 AM 70.1°F21.2°C 65.0°F18.3°C 84% Calm Calm 1.2 mph1.9 kmh 29.78 in1008.5 mb - 0.00 in0.0 mm 0.00 in0.0 mm
04:50 AM 70.1°F21.2°C 65.0°F18.3°C 84% 1.2 mph NW1.9 kmh NW 2.3 mph3.7 kmh 29.78 in1008.5 mb - 0.00 in0.0 mm 0.00 in0.0 mm
05:00 AM 70.0°F21.1°C 64.9°F18.3°C 84% 2.3 mph NW3.7 kmh NW 3.5 mph5.6 kmh 29.79 in1008.8 mb - 0.00 in0.0 mm 0.00 in0.0 mm
05:10 AM 69.9°F21.1°C 64.8°F18.2°C 84% 2.3 mph NW3.7 kmh NW 3.5 mph5.6 kmh 29.79 in1008.8 mb - 0.00 in0.0 mm 0.00 in0.0 mm
05:20 AM 70.1°F21.2°C 64.7°F18.2°C 83% 3.5 mph NW5.6 kmh NW 4.6 mph7.4 kmh 29.79 in1008.8 mb - 0.00 in0.0 mm 0.00 in0.0 mm
05:30 AM 70.4°F21.3°C 64.6°F18.1°C 82% 1.2 mph NW1.9 kmh NW 2.3 mph3.7 kmh 29.79 in1008.8 mb - 0.00 in0.0 mm 0.00 in0.0 mm
05:40 AM 70.7°F21.5°C 64.6°F18.1°C 81% 1.2 mph NW1.9 kmh NW 4.6 mph7.4 kmh 29.79 in1008.8 mb - 0.00 in0.0 mm 0.00 in0.0 mm
05:50 AM 71.1°F21.7°C 64.6°F18.1°C 80% 1.2 mph WNW1.9 kmh WNW 2.3 mph3.7 kmh 29.79 in1008.8 mb - 0.00 in0.0 mm 0.00 in0.0 mm
06:00 AM 71.4°F21.9°C 64.5°F18.1°C 79% 2.3 mph WNW3.7 kmh WNW 5.8 mph9.3 kmh 29.78 in1008.5 mb - 0.00 in0.0 mm 0.00 in0.0 mm
06:10 AM 71.9°F22.2°C 64.3°F17.9°C 77% 2.3 mph W3.7 kmh W 3.5 mph5.6 kmh 29.79 in1008.8 mb - 0.00 in0.0 mm 0.00 in0.0 mm
06:20 AM 72.3°F22.4°C 64.3°F17.9°C 76% 1.2 mph SW1.9 kmh SW 2.3 mph3.7 kmh 29.79 in1008.8 mb - 0.00 in0.0 mm 0.00 in0.0 mm
06:30 AM 72.8°F22.7°C 64.8°F18.2°C 76% 2.3 mph SW3.7 kmh SW 3.5 mph5.6 kmh 29.80 in1009.1 mb - 0.00 in0.0 mm 0.00 in0.0 mm
06:40 AM 73.2°F22.9°C 64.8°F18.2°C 75% 3.5 mph SW5.6 kmh SW 4.6 mph7.4 kmh 29.81 in1009.5 mb - 0.00 in0.0 mm 0.00 in0.0 mm
06:50 AM 73.4°F23.0°C 65.0°F18.3°C 75% 3.5 mph S5.6 kmh S 3.5 mph5.6 kmh 29.81 in1009.5 mb - 0.00 in0.0 mm 0.00 in0.0 mm
07:00 AM 73.7°F23.2°C 65.3°F18.5°C 75% 4.6 mph S7.4 kmh S 9.2 mph14.8 kmh 29.82 in1009.8 mb - 0.00 in0.0 mm 0.00 in0.0 mm
07:10 AM 74.6°F23.7°C 66.1°F18.9°C 75% 8.1 mph S13.0 kmh S 10.4 mph16.7 kmh 29.83 in1010.2 mb - 0.00 in0.0 mm 0.00 in0.0 mm
07:20 AM 75.8°F24.3°C 66.1°F18.9°C 72% 9.2 mph SSW14.8 kmh SSW 16.1 mph25.9 kmh 29.85 in1010.8 mb - 0.00 in0.0 mm 0.00 in0.0 mm
07:30 AM 75.9°F24.4°C 66.2°F19.0°C 72% 10.4 mph S16.7 kmh S 15.0 mph24.1 kmh 29.85 in1010.8 mb - 0.00 in0.0 mm 0.00 in0.0 mm
07:40 AM 75.2°F24.0°C 66.3°F19.1°C 74% 9.2 mph S14.8 kmh S 12.7 mph20.4 kmh 29.87 in1011.5 mb - 0.00 in0.0 mm 0.00 in0.0 mm
07:50 AM 74.1°F23.4°C 66.1°F18.9°C 76% 4.6 mph SW7.4 kmh SW 8.1 mph13.0 kmh 29.87 in1011.5 mb - 0.02 in0.5 mm 0.02 in0.5 mm
08:00 AM 73.4°F23.0°C 66.1°F18.9°C 78% 3.5 mph SE5.6 kmh SE 3.5 mph5.6 kmh 29.82 in1009.8 mb - 0.02 in0.5 mm 0.04 in1.0 mm
08:10 AM 73.1°F22.8°C 66.2°F19.0°C 79% 1.2 mph SSW1.9 kmh SSW 1.2 mph1.9 kmh 29.82 in1009.8 mb - 0.01 in0.3 mm 0.04 in1.0 mm
08:20 AM 73.2°F22.9°C 67.4°F19.7°C 82% 1.2 mph WSW1.9 kmh WSW 2.3 mph3.7 kmh 29.82 in1009.8 mb - 0.00 in0.0 mm 0.04 in1.0 mm
08:30 AM 73.3°F22.9°C 67.8°F19.9°C 83% 1.2 mph SW1.9 kmh SW 1.2 mph1.9 kmh 29.80 in1009.1 mb - 0.00 in0.0 mm 0.04 in1.0 mm
08:40 AM 73.6°F23.1°C 68.1°F20.1°C 83% 2.3 mph SE3.7 kmh SE 3.5 mph5.6 kmh 29.80 in1009.1 mb - 0.00 in0.0 mm 0.04 in1.0 mm
08:50 AM 73.9°F23.3°C 68.8°F20.4°C 84% 2.3 mph SSE3.7 kmh SSE 3.5 mph5.6 kmh 29.80 in1009.1 mb - 0.00 in0.0 mm 0.04 in1.0 mm
09:00 AM 74.8°F23.8°C 69.6°F20.9°C 84% 5.8 mph S9.3 kmh S 8.1 mph13.0 kmh 29.81 in1009.5 mb - 0.00 in0.0 mm 0.04 in1.0 mm
09:10 AM 74.9°F23.8°C 69.0°F20.6°C 82% 3.5 mph S5.6 kmh S 6.9 mph11.1 kmh 29.83 in1010.2 mb - 0.00 in0.0 mm 0.04 in1.0 mm
09:20 AM 75.2°F24.0°C 68.9°F20.5°C 81% 6.9 mph S11.1 kmh S 10.4 mph16.7 kmh 29.85 in1010.8 mb - 0.00 in0.0 mm 0.04 in1.0 mm
09:30 AM 74.8°F23.8°C 68.2°F20.1°C 80% 5.8 mph SSW9.3 kmh SSW 8.1 mph13.0 kmh 29.87 in1011.5 mb - 0.00 in0.0 mm 0.04 in1.0 mm
09:40 AM 74.5°F23.6°C 68.3°F20.2°C 81% 5.8 mph SW9.3 kmh SW 6.9 mph11.1 kmh 29.89 in1012.2 mb - 0.00 in0.0 mm 0.04 in1.0 mm
09:50 AM 74.2°F23.4°C 68.0°F20.0°C 81% 5.8 mph S9.3 kmh S 6.9 mph11.1 kmh 29.87 in1011.5 mb - 0.01 in0.3 mm 0.05 in1.3 mm
10:00 AM 74.0°F23.3°C 68.2°F20.1°C 82% 1.2 mph SW1.9 kmh SW 2.3 mph3.7 kmh 29.87 in1011.5 mb - 0.00 in0.0 mm 0.05 in1.3 mm
10:10 AM 74.1°F23.4°C 68.2°F20.1°C 82% Calm Calm 2.3 mph3.7 kmh 29.86 in1011.2 mb - 0.00 in0.0 mm 0.05 in1.3 mm
10:20 AM 74.1°F23.4°C 68.6°F20.3°C 83% Calm Calm 1.2 mph1.9 kmh 29.81 in1009.5 mb - 0.00 in0.0 mm 0.05 in1.3 mm
10:30 AM 74.2°F23.4°C 69.1°F20.6°C 84% 1.2 mph SSE1.9 kmh SSE 2.3 mph3.7 kmh 29.82 in1009.8 mb - 0.00 in0.0 mm 0.05 in1.3 mm
10:40 AM 74.4°F23.6°C 69.2°F20.7°C 84% 1.2 mph SSW1.9 kmh SSW 3.5 mph5.6 kmh 29.83 in1010.2 mb - 0.00 in0.0 mm 0.05 in1.3 mm
10:50 AM 75.3°F24.1°C 70.1°F21.2°C 84% 3.5 mph SW5.6 kmh SW 5.8 mph9.3 kmh 29.84 in1010.5 mb - 0.00 in0.0 mm 0.05 in1.3 mm
11:00 AM 76.2°F24.6°C 71.0°F21.7°C 84% 1.2 mph WNW1.9 kmh WNW 3.5 mph5.6 kmh 29.83 in1010.2 mb - 0.00 in0.0 mm 0.05 in1.3 mm
11:10 AM 77.5°F25.3°C 71.9°F22.2°C 83% 3.5 mph SW5.6 kmh SW 9.2 mph14.8 kmh 29.84 in1010.5 mb - 0.00 in0.0 mm 0.05 in1.3 mm
11:20 AM 79.1°F26.2°C 71.6°F22.0°C 78% Calm Calm -- 29.84 in1010.5 mb - 0.00 in0.0 mm 0.05 in1.3 mm
11:30 AM 80.3°F26.8°C 71.6°F22.0°C 75% 3.5 mph SSW5.6 kmh SSW 5.8 mph9.3 kmh 29.84 in1010.5 mb - 0.01 in0.3 mm 0.06 in1.5 mm
11:40 AM 82.2°F27.9°C 72.3°F22.4°C 72% 1.2 mph WSW1.9 kmh WSW 3.5 mph5.6 kmh 29.84 in1010.5 mb - 0.00 in0.0 mm 0.06 in1.5 mm
11:50 AM 83.7°F28.7°C 72.4°F22.4°C 69% 3.5 mph S5.6 kmh S 3.5 mph5.6 kmh 29.84 in1010.5 mb - 0.00 in0.0 mm 0.06 in1.5 mm
12:00 PM 84.2°F29.0°C 71.6°F22.0°C 66% 3.5 mph E5.6 kmh E 5.8 mph9.3 kmh 29.84 in1010.5 mb - 0.00 in0.0 mm 0.06 in1.5 mm
12:10 PM 83.7°F28.7°C 70.7°F21.5°C 65% 5.8 mph E9.3 kmh E 8.1 mph13.0 kmh 29.84 in1010.5 mb - 0.00 in0.0 mm 0.06 in1.5 mm
12:20 PM 82.9°F28.3°C 70.0°F21.1°C 65% 6.9 mph E11.1 kmh E 11.5 mph18.5 kmh 29.85 in1010.8 mb - 0.00 in0.0 mm 0.06 in1.5 mm
12:30 PM 82.3°F27.9°C 69.8°F21.0°C 66% 4.6 mph ESE7.4 kmh ESE 5.8 mph9.3 kmh 29.85 in1010.8 mb - 0.00 in0.0 mm 0.06 in1.5 mm
12:40 PM 81.9°F27.7°C 69.4°F20.8°C 66% 2.3 mph ESE3.7 kmh ESE 6.9 mph11.1 kmh 29.85 in1010.8 mb - 0.00 in0.0 mm 0.06 in1.5 mm
12:50 PM 81.6°F27.6°C 69.1°F20.6°C 66% 6.9 mph ESE11.1 kmh ESE 11.5 mph18.5 kmh 29.85 in1010.8 mb - 0.00 in0.0 mm 0.06 in1.5 mm
01:00 PM 81.3°F27.4°C 68.9°F20.5°C 66% 6.9 mph E11.1 kmh E 10.4 mph16.7 kmh 29.85 in1010.8 mb - 0.00 in0.0 mm 0.06 in1.5 mm
01:10 PM 81.0°F27.2°C 69.0°F20.6°C 67% 4.6 mph E7.4 kmh E 10.4 mph16.7 kmh 29.86 in1011.2 mb - 0.00 in0.0 mm 0.06 in1.5 mm
01:20 PM 81.1°F27.3°C 69.1°F20.6°C 67% 3.5 mph E5.6 kmh E 4.6 mph7.4 kmh 29.85 in1010.8 mb - 0.00 in0.0 mm 0.06 in1.5 mm
01:30 PM 82.1°F27.8°C 70.5°F21.4°C 68% 4.6 mph ESE7.4 kmh ESE 5.8 mph9.3 kmh 29.85 in1010.8 mb - 0.00 in0.0 mm 0.06 in1.5 mm
01:40 PM 82.8°F28.2°C 69.8°F21.0°C 65% 1.2 mph E1.9 kmh E 3.5 mph5.6 kmh 29.84 in1010.5 mb - 0.00 in0.0 mm 0.06 in1.5 mm
01:50 PM 82.4°F28.0°C 69.0°F20.6°C 64% 3.5 mph E5.6 kmh E 4.6 mph7.4 kmh 29.84 in1010.5 mb - 0.00 in0.0 mm 0.06 in1.5 mm
02:00 PM 82.0°F27.8°C 68.7°F20.4°C 64% 2.3 mph ENE3.7 kmh ENE 2.3 mph3.7 kmh 29.83 in1010.2 mb - 0.00 in0.0 mm 0.06 in1.5 mm
02:10 PM 81.8°F27.7°C 68.4°F20.2°C 64% 1.2 mph NNW1.9 kmh NNW 2.3 mph3.7 kmh 29.83 in1010.2 mb - 0.00 in0.0 mm 0.06 in1.5 mm
02:20 PM 81.2°F27.3°C 68.3°F20.2°C 65% 1.2 mph NE1.9 kmh NE 3.5 mph5.6 kmh 29.82 in1009.8 mb - 0.00 in0.0 mm 0.06 in1.5 mm
02:30 PM 80.6°F27.0°C 67.7°F19.8°C 65% 1.2 mph NE1.9 kmh NE 2.3 mph3.7 kmh 29.83 in1010.2 mb - 0.00 in0.0 mm 0.06 in1.5 mm
02:40 PM 80.4°F26.9°C 68.0°F20.0°C 66% Calm Calm 3.5 mph5.6 kmh 29.83 in1010.2 mb - 0.00 in0.0 mm 0.06 in1.5 mm
02:50 PM 80.1°F26.7°C 67.7°F19.8°C 66% Calm Calm 1.2 mph1.9 kmh 29.83 in1010.2 mb - 0.00 in0.0 mm 0.06 in1.5 mm
03:00 PM 79.8°F26.6°C 67.9°F19.9°C 67% 1.2 mph E1.9 kmh E 2.3 mph3.7 kmh 29.84 in1010.5 mb - 0.00 in0.0 mm 0.06 in1.5 mm
03:10 PM 79.6°F26.4°C 67.7°F19.8°C 67% Calm Calm -- 29.86 in1011.2 mb - 0.00 in0.0 mm 0.06 in1.5 mm
03:20 PM 79.7°F26.5°C 67.3°F19.6°C 66% 2.3 mph SSW3.7 kmh SSW 6.9 mph11.1 kmh 29.86 in1011.2 mb - 0.00 in0.0 mm 0.06 in1.5 mm
03:30 PM 80.0°F26.7°C 67.2°F19.6°C 65% 8.1 mph S13.0 kmh S 11.5 mph18.5 kmh 29.86 in1011.2 mb - 0.00 in0.0 mm 0.06 in1.5 mm
03:40 PM 80.4°F26.9°C 66.6°F19.2°C 63% 6.9 mph SSE11.1 kmh SSE 10.4 mph16.7 kmh 29.87 in1011.5 mb - 0.00 in0.0 mm 0.06 in1.5 mm
03:50 PM 80.5°F26.9°C 66.3°F19.1°C 62% 8.1 mph S13.0 kmh S 13.8 mph22.2 kmh 29.88 in1011.9 mb - 0.00 in0.0 mm 0.06 in1.5 mm
04:00 PM 80.4°F26.9°C 65.7°F18.7°C 61% 6.9 mph S11.1 kmh S 12.7 mph20.4 kmh 29.89 in1012.2 mb - 0.00 in0.0 mm 0.06 in1.5 mm
04:10 PM 80.2°F26.8°C 65.5°F18.6°C 61% 5.8 mph SW9.3 kmh SW 6.9 mph11.1 kmh 29.89 in1012.2 mb - 0.00 in0.0 mm 0.06 in1.5 mm
04:20 PM 80.2°F26.8°C 65.5°F18.6°C 61% 8.1 mph S13.0 kmh S 10.4 mph16.7 kmh 29.90 in1012.5 mb - 0.00 in0.0 mm 0.06 in1.5 mm
04:30 PM 80.2°F26.8°C 65.5°F18.6°C 61% 4.6 mph SSW7.4 kmh SSW 12.7 mph20.4 kmh 29.90 in1012.5 mb - 0.00 in0.0 mm 0.06 in1.5 mm
04:40 PM 80.1°F26.7°C 65.4°F18.6°C 61% 9.2 mph S14.8 kmh S 11.5 mph18.5 kmh 29.90 in1012.5 mb - 0.00 in0.0 mm 0.06 in1.5 mm
04:50 PM 79.9°F26.6°C 65.2°F18.4°C 61% 9.2 mph S14.8 kmh S 11.5 mph18.5 kmh 29.90 in1012.5 mb - 0.00 in0.0 mm 0.06 in1.5 mm
05:00 PM 79.8°F26.6°C 64.7°F18.2°C 60% 10.4 mph SSE16.7 kmh SSE 13.8 mph22.2 kmh 29.90 in1012.5 mb - 0.00 in0.0 mm 0.06 in1.5 mm
05:10 PM 79.4°F26.3°C 63.4°F17.4°C 58% 6.9 mph SE11.1 kmh SE 10.4 mph16.7 kmh 29.90 in1012.5 mb - 0.00 in0.0 mm 0.06 in1.5 mm
05:20 PM 78.9°F26.1°C 61.4°F16.3°C 55% 10.4 mph S16.7 kmh S 16.1 mph25.9 kmh 29.91 in1012.9 mb - 0.00 in0.0 mm 0.06 in1.5 mm
05:30 PM 78.5°F25.8°C 61.5°F16.4°C 56% 5.8 mph S9.3 kmh S 11.5 mph18.5 kmh 29.91 in1012.9 mb - 0.00 in0.0 mm 0.06 in1.5 mm
05:40 PM 78.3°F25.7°C 64.2°F17.9°C 62% 4.6 mph SE7.4 kmh SE 5.8 mph9.3 kmh 29.92 in1013.2 mb - 0.00 in0.0 mm 0.06 in1.5 mm
05:50 PM 77.4°F25.2°C 63.3°F17.4°C 62% 4.6 mph SSE7.4 kmh SSE 6.9 mph11.1 kmh 29.92 in1013.2 mb - 0.00 in0.0 mm 0.06 in1.5 mm
06:00 PM 75.8°F24.3°C 60.9°F16.1°C 60% 6.9 mph S11.1 kmh S 16.1 mph25.9 kmh 29.92 in1013.2 mb - 0.00 in0.0 mm 0.06 in1.5 mm
06:10 PM 74.6°F23.7°C 59.8°F15.4°C 60% 8.1 mph S13.0 kmh S 10.4 mph16.7 kmh 29.92 in1013.2 mb - 0.00 in0.0 mm 0.06 in1.5 mm
06:20 PM 73.4°F23.0°C 58.7°F14.8°C 60% 9.2 mph S14.8 kmh S 19.6 mph31.5 kmh 29.93 in1013.5 mb - 0.00 in0.0 mm 0.06 in1.5 mm
06:30 PM 72.4°F22.4°C 58.2°F14.6°C 61% 9.2 mph S14.8 kmh S 13.8 mph22.2 kmh 29.94 in1013.9 mb - 0.00 in0.0 mm 0.06 in1.5 mm
06:40 PM 71.8°F22.1°C 57.2°F14.0°C 60% 9.2 mph S14.8 kmh S 11.5 mph18.5 kmh 29.95 in1014.2 mb - 0.00 in0.0 mm 0.06 in1.5 mm
06:50 PM 71.2°F21.8°C 55.7°F13.2°C 58% 10.4 mph S16.7 kmh S 12.7 mph20.4 kmh 29.96 in1014.6 mb - 0.00 in0.0 mm 0.06 in1.5 mm
07:00 PM 70.3°F21.3°C 54.8°F12.7°C 58% 9.2 mph SSE14.8 kmh SSE 12.7 mph20.4 kmh 29.97 in1014.9 mb - 0.00 in0.0 mm 0.06 in1.5 mm
07:10 PM 69.6°F20.9°C 55.1°F12.8°C 60% 10.4 mph SSE16.7 kmh SSE 19.6 mph31.5 kmh 29.98 in1015.2 mb - 0.00 in0.0 mm 0.06 in1.5 mm
07:20 PM 69.0°F20.6°C 55.5°F13.1°C 62% 11.5 mph SSE18.5 kmh SSE 15.0 mph24.1 kmh 29.98 in1015.2 mb - 0.00 in0.0 mm 0.06 in1.5 mm
07:30 PM 68.5°F20.3°C 55.0°F12.8°C 62% 10.4 mph SSE16.7 kmh SSE 18.4 mph29.6 kmh 29.99 in1015.6 mb - 0.00 in0.0 mm 0.06 in1.5 mm
07:40 PM 68.1°F20.1°C 55.0°F12.8°C 63% 8.1 mph SSE13.0 kmh SSE 11.5 mph18.5 kmh 30.00 in1015.9 mb - 0.00 in0.0 mm 0.06 in1.5 mm
07:50 PM 67.6°F19.8°C 55.0°F12.8°C 64% 9.2 mph SSE14.8 kmh SSE 11.5 mph18.5 kmh 30.01 in1016.3 mb - 0.00 in0.0 mm 0.06 in1.5 mm
08:00 PM 67.1°F19.5°C 55.0°F12.8°C 65% 6.9 mph S11.1 kmh S 13.8 mph22.2 kmh 30.02 in1016.6 mb - 0.00 in0.0 mm 0.06 in1.5 mm
08:10 PM 66.8°F19.3°C 55.1°F12.8°C 66% 6.9 mph S11.1 kmh S 10.4 mph16.7 kmh 30.02 in1016.6 mb - 0.00 in0.0 mm 0.06 in1.5 mm
08:20 PM 66.5°F19.2°C 55.2°F12.9°C 67% 6.9 mph SSE11.1 kmh SSE 10.4 mph16.7 kmh 30.02 in1016.6 mb - 0.00 in0.0 mm 0.06 in1.5 mm
08:30 PM 66.2°F19.0°C 55.4°F13.0°C 68% 5.8 mph S9.3 kmh S 8.1 mph13.0 kmh 30.02 in1016.6 mb - 0.00 in0.0 mm 0.06 in1.5 mm
08:40 PM 66.1°F18.9°C 55.2°F12.9°C 68% 5.8 mph S9.3 kmh S 8.1 mph13.0 kmh 30.04 in1017.3 mb - 0.00 in0.0 mm 0.06 in1.5 mm
08:50 PM 65.9°F18.8°C 55.4°F13.0°C 69% 2.3 mph SSW3.7 kmh SSW 5.8 mph9.3 kmh 30.05 in1017.6 mb - 0.00 in0.0 mm 0.06 in1.5 mm
09:00 PM 65.8°F18.8°C 55.3°F12.9°C 69% 3.5 mph S5.6 kmh S 5.8 mph9.3 kmh 30.05 in1017.6 mb - 0.00 in0.0 mm 0.06 in1.5 mm
09:10 PM 65.6°F18.7°C 55.5°F13.1°C 70% 5.8 mph SSW9.3 kmh SSW 9.2 mph14.8 kmh 30.05 in1017.6 mb - 0.00 in0.0 mm 0.06 in1.5 mm
09:20 PM 65.5°F18.6°C 55.8°F13.2°C 71% 3.5 mph S5.6 kmh S 5.8 mph9.3 kmh 30.05 in1017.6 mb - 0.00 in0.0 mm 0.06 in1.5 mm
09:30 PM 65.3°F18.5°C 55.7°F13.2°C 71% 4.6 mph S7.4 kmh S 10.4 mph16.7 kmh 30.06 in1017.9 mb - 0.00 in0.0 mm 0.06 in1.5 mm
09:40 PM 65.2°F18.4°C 55.9°F13.3°C 72% 8.1 mph S13.0 kmh S 12.7 mph20.4 kmh 30.06 in1017.9 mb - 0.00 in0.0 mm 0.06 in1.5 mm
09:50 PM 65.0°F18.3°C 56.1°F13.4°C 73% 4.6 mph S7.4 kmh S 8.1 mph13.0 kmh 30.07 in1018.3 mb - 0.00 in0.0 mm 0.06 in1.5 mm
10:00 PM 64.8°F18.2°C 56.0°F13.3°C 73% 3.5 mph S5.6 kmh S 3.5 mph5.6 kmh 30.07 in1018.3 mb - 0.00 in0.0 mm 0.06 in1.5 mm
10:10 PM 64.5°F18.1°C 56.0°F13.3°C 74% 3.5 mph S5.6 kmh S 9.2 mph14.8 kmh 30.07 in1018.3 mb - 0.00 in0.0 mm 0.06 in1.5 mm
10:20 PM 64.2°F17.9°C 55.7°F13.2°C 74% 3.5 mph S5.6 kmh S 5.8 mph9.3 kmh 30.07 in1018.3 mb - 0.00 in0.0 mm 0.06 in1.5 mm
10:30 PM 63.8°F17.7°C 55.8°F13.2°C 75% 2.3 mph SW3.7 kmh SW 3.5 mph5.6 kmh 30.07 in1018.3 mb - 0.00 in0.0 mm 0.06 in1.5 mm
10:40 PM 63.6°F17.6°C 55.5°F13.1°C 75% 2.3 mph S3.7 kmh S 3.5 mph5.6 kmh 30.08 in1018.6 mb - 0.00 in0.0 mm 0.06 in1.5 mm
10:50 PM 63.4°F17.4°C 55.3°F12.9°C 75% 1.2 mph S1.9 kmh S 2.3 mph3.7 kmh 30.08 in1018.6 mb - 0.00 in0.0 mm 0.06 in1.5 mm
11:00 PM 63.3°F17.4°C 56.0°F13.3°C 77% 1.2 mph S1.9 kmh S 2.3 mph3.7 kmh 30.08 in1018.6 mb - 0.00 in0.0 mm 0.07 in1.8 mm
11:10 PM 63.0°F17.2°C 55.7°F13.2°C 77% 2.3 mph SSW3.7 kmh SSW 6.9 mph11.1 kmh 30.08 in1018.6 mb - 0.00 in0.0 mm 0.07 in1.8 mm
11:20 PM 62.8°F17.1°C 55.8°F13.2°C 78% 2.3 mph SSW3.7 kmh SSW 6.9 mph11.1 kmh 30.09 in1019.0 mb - 0.00 in0.0 mm 0.07 in1.8 mm
11:30 PM 62.5°F16.9°C 55.9°F13.3°C 79% 1.2 mph SSW1.9 kmh SSW 2.3 mph3.7 kmh 30.09 in1019.0 mb - 0.00 in0.0 mm 0.07 in1.8 mm
11:40 PM 62.3°F16.8°C 55.7°F13.2°C 79% 1.2 mph SW1.9 kmh SW 3.5 mph5.6 kmh 30.09 in1019.0 mb - 0.00 in0.0 mm 0.07 in1.8 mm
11:50 PM 62.1°F16.7°C 55.9°F13.3°C 80% 1.2 mph SSW1.9 kmh SSW 5.8 mph9.3 kmh 30.09 in1019.0 mb - 0.00 in0.0 mm 0.07 in1.8 mm